Time;durP1;ratioP1;P1;durP2;ratioP2;P2;SDS_P1;SDS_P2;PMS_P1;PMS_P2;Temp;Humidity;BMP_temperature;BMP_pressure;BME280_temperature;BME280_humidity;BME280_pressure;Samples;Min_cycle;Max_cycle;Signal;HPM_P1;HPM_P2
2023/12/22 00:01:55;;;;;;;12.80;12.00;;;7.40;99.90;;;;;;5056428;28;20652;-80
2023/12/22 00:04:23;;;;;;;12.50;11.80;;;7.40;99.90;;;;;;5055108;28;20335;-79
2023/12/22 00:06:51;;;;;;;12.67;11.97;;;7.30;99.90;;;;;;5056808;28;20202;-79
2023/12/22 00:09:19;;;;;;;12.00;11.30;;;7.30;99.90;;;;;;5057303;28;20219;-80
2023/12/22 00:11:45;;;;;;;13.37;12.47;;;7.30;99.90;;;;;;5055541;28;20367;-79
2023/12/22 00:14:12;;;;;;;14.27;13.27;;;7.30;99.90;;;;;;5055617;28;20577;-80
2023/12/22 00:16:39;;;;;;;13.80;13.00;;;7.20;99.90;;;;;;5056257;28;20553;-79
2023/12/22 00:19:06;;;;;;;13.70;12.60;;;7.20;99.90;;;;;;5057430;28;20716;-80
2023/12/22 00:21:34;;;;;;;13.67;12.70;;;7.20;99.90;;;;;;5055396;28;20230;-79
2023/12/22 00:24:01;;;;;;;13.87;12.87;;;7.10;99.90;;;;;;5055558;28;20230;-80
2023/12/22 00:26:27;;;;;;;13.43;12.53;;;7.10;99.90;;;;;;5056833;28;20664;-80
2023/12/22 00:28:54;;;;;;;13.60;12.73;;;7.20;99.90;;;;;;5054205;28;20854;-80
2023/12/22 00:31:21;;;;;;;13.90;12.73;;;7.20;99.90;;;;;;5054241;28;20229;-80
2023/12/22 00:33:48;;;;;;;14.33;12.90;;;7.20;99.90;;;;;;5055706;28;20198;-80
2023/12/22 00:36:14;;;;;;;13.33;12.33;;;7.20;99.90;;;;;;5054599;28;20199;-79
2023/12/22 00:38:43;;;;;;;13.80;12.63;;;7.20;99.90;;;;;;5054468;28;20256;-80
2023/12/22 00:41:11;;;;;;;13.13;12.33;;;7.20;99.90;;;;;;5063390;28;20244;-80
2023/12/22 00:43:37;;;;;;;13.80;12.80;;;7.10;99.90;;;;;;5054336;28;20233;-80
2023/12/22 00:46:04;;;;;;;14.37;13.20;;;7.10;99.90;;;;;;5053872;28;20244;-80
2023/12/22 00:48:31;;;;;;;14.37;13.20;;;7.10;99.90;;;;;;5065117;28;20206;-80
2023/12/22 00:50:58;;;;;;;14.17;13.17;;;7.10;99.90;;;;;;5053971;28;20222;-79
2023/12/22 00:53:24;;;;;;;14.80;13.80;;;7.10;99.90;;;;;;5053643;28;20584;-80
2023/12/22 00:55:52;;;;;;;13.90;12.97;;;7.10;99.90;;;;;;5047078;28;20271;-80
2023/12/22 00:58:19;;;;;;;14.50;13.60;;;7.00;99.90;;;;;;5054507;28;20245;-80
2023/12/22 01:00:46;;;;;;;14.27;13.13;;;7.10;99.90;;;;;;5055613;28;20268;-80
2023/12/22 01:03:13;;;;;;;14.33;13.40;;;7.10;99.90;;;;;;5054101;28;20227;-80
2023/12/22 01:05:40;;;;;;;14.07;13.17;;;7.10;99.90;;;;;;5054893;28;20210;-80
2023/12/22 01:08:07;;;;;;;14.70;13.70;;;7.10;99.90;;;;;;5055725;28;20781;-81
2023/12/22 01:10:34;;;;;;;14.53;13.60;;;7.20;99.90;;;;;;5055284;28;20275;-80
2023/12/22 01:13:02;;;;;;;15.07;13.73;;;7.20;99.90;;;;;;5053707;28;20209;-81
2023/12/22 01:15:29;;;;;;;14.90;13.50;;;7.20;99.90;;;;;;5055535;28;20195;-80
2023/12/22 01:17:55;;;;;;;13.90;13.00;;;7.20;99.90;;;;;;5054114;28;20230;-80
2023/12/22 01:20:22;;;;;;;14.30;13.13;;;7.20;99.90;;;;;;5055145;28;20719;-80
2023/12/22 01:22:49;;;;;;;14.20;13.30;;;7.20;99.90;;;;;;5053975;28;20201;-79
2023/12/22 01:25:16;;;;;;;14.70;13.67;;;7.30;99.90;;;;;;5068123;28;20202;-80
2023/12/22 01:27:43;;;;;;;13.33;12.33;;;7.30;99.90;;;;;;5055226;28;20281;-81
2023/12/22 01:30:11;;;;;;;13.20;12.17;;;7.30;99.90;;;;;;5055246;28;20246;-80
2023/12/22 01:32:38;;;;;;;13.30;12.40;;;7.20;99.90;;;;;;5055229;28;20205;-80
2023/12/22 01:35:09;;;;;;;13.40;12.30;;;7.20;99.90;;;;;;5054145;28;20199;-79
2023/12/22 01:37:36;;;;;;;13.43;12.23;;;7.10;99.90;;;;;;5054134;28;20193;-80
2023/12/22 01:40:03;;;;;;;12.80;12.00;;;7.00;99.90;;;;;;5053962;28;20221;-80
2023/12/22 01:42:30;;;;;;;12.60;11.90;;;6.90;99.90;;;;;;5053804;28;20268;-80
2023/12/22 01:44:56;;;;;;;12.47;11.87;;;6.90;99.90;;;;;;5053301;28;20205;-80
2023/12/22 01:47:25;;;;;;;12.87;12.17;;;6.80;99.90;;;;;;5052630;28;20212;-79
2023/12/22 01:49:52;;;;;;;13.80;13.10;;;6.80;99.90;;;;;;5051766;28;20232;-80
2023/12/22 01:52:19;;;;;;;13.53;12.73;;;6.70;99.90;;;;;;5053259;28;20202;-80
2023/12/22 01:54:46;;;;;;;13.80;13.00;;;6.60;99.90;;;;;;5053309;28;20664;-80
2023/12/22 01:57:17;;;;;;;13.70;12.90;;;6.60;99.90;;;;;;5053256;28;20197;-79
2023/12/22 01:59:44;;;;;;;13.50;12.80;;;6.60;99.90;;;;;;5053171;28;20233;-80
2023/12/22 02:02:11;;;;;;;13.80;13.10;;;6.50;99.90;;;;;;5052612;28;20255;-80
2023/12/22 02:04:40;;;;;;;13.27;12.47;;;6.50;99.90;;;;;;5053374;28;20201;-80
2023/12/22 02:07:10;;;;;;;13.20;12.50;;;6.50;99.90;;;;;;5053511;28;20713;-79
2023/12/22 02:09:37;;;;;;;13.23;12.53;;;6.50;99.90;;;;;;5053613;28;20230;-78
2023/12/22 02:12:04;;;;;;;13.60;12.77;;;6.50;99.90;;;;;;5053475;28;20218;-80
2023/12/22 02:14:31;;;;;;;14.20;13.40;;;6.40;99.90;;;;;;5054663;28;20209;-80
2023/12/22 02:17:08;;;;;;;13.80;13.07;;;6.40;99.90;;;;;;5054140;28;20193;-79
2023/12/22 02:19:43;;;;;;;13.70;12.80;;;6.40;99.90;;;;;;5047818;28;20199;-80
2023/12/22 02:22:11;;;;;;;13.70;12.90;;;6.40;99.90;;;;;;5051644;28;20205;-79
2023/12/22 02:24:40;;;;;;;13.63;12.93;;;6.40;99.90;;;;;;5052973;28;20688;-80
2023/12/22 02:27:13;;;;;;;14.10;13.40;;;6.40;99.90;;;;;;5054166;28;20197;-80
2023/12/22 02:29:46;;;;;;;14.00;13.20;;;6.40;99.90;;;;;;5052537;28;20213;-79
2023/12/22 02:32:22;;;;;;;14.10;13.20;;;6.40;99.90;;;;;;5052169;28;20205;-80
2023/12/22 02:34:53;;;;;;;13.87;13.00;;;6.40;99.90;;;;;;5053323;28;20209;-80
2023/12/22 02:37:22;;;;;;;13.90;12.80;;;6.40;99.90;;;;;;5055169;28;20194;-80
2023/12/22 02:39:51;;;;;;;13.90;12.90;;;6.40;99.90;;;;;;5066329;28;20290;-80
2023/12/22 02:42:19;;;;;;;13.90;12.97;;;6.40;99.90;;;;;;5049135;28;20333;-79
2023/12/22 02:44:46;;;;;;;13.90;12.97;;;6.40;99.90;;;;;;5046366;28;20200;-80
2023/12/22 02:47:13;;;;;;;13.80;12.90;;;6.40;99.90;;;;;;5054867;28;20198;-79
2023/12/22 02:49:40;;;;;;;13.63;12.83;;;6.40;99.90;;;;;;5053304;28;20218;-80
2023/12/22 02:52:07;;;;;;;13.70;12.80;;;6.50;99.90;;;;;;5057208;28;20195;-80
2023/12/22 02:54:33;;;;;;;14.50;13.43;;;6.50;99.90;;;;;;5058524;28;20650;-80
2023/12/22 02:57:02;;;;;;;14.10;13.10;;;6.50;99.90;;;;;;5056357;28;20227;-80
2023/12/22 02:59:29;;;;;;;14.47;13.47;;;6.60;99.90;;;;;;5056802;28;20245;-80
2023/12/22 03:01:56;;;;;;;14.60;13.40;;;6.60;99.90;;;;;;5056542;28;20215;-78
2023/12/22 03:04:22;;;;;;;13.77;12.97;;;6.60;99.90;;;;;;5057388;28;20696;-80
2023/12/22 03:06:49;;;;;;;14.60;13.50;;;6.60;99.90;;;;;;5057800;28;20206;-80
2023/12/22 03:09:16;;;;;;;13.70;12.90;;;6.70;99.90;;;;;;5057961;28;20214;-80
2023/12/22 03:11:43;;;;;;;14.17;13.27;;;6.80;99.90;;;;;;5057171;28;20214;-80
2023/12/22 03:14:11;;;;;;;14.43;13.27;;;6.80;99.90;;;;;;5056240;28;20225;-80
2023/12/22 03:16:38;;;;;;;14.27;13.20;;;6.80;99.90;;;;;;5058401;28;20196;-80
2023/12/22 03:19:05;;;;;;;14.50;13.40;;;6.80;99.90;;;;;;5057474;28;20206;-80
2023/12/22 03:21:31;;;;;;;13.43;12.57;;;6.80;99.90;;;;;;5056361;28;20221;-79
2023/12/22 03:23:58;;;;;;;13.20;12.30;;;6.80;99.90;;;;;;5055759;28;20214;-79
2023/12/22 03:26:28;;;;;;;13.27;12.37;;;6.80;99.90;;;;;;5057320;28;20217;-80
2023/12/22 03:28:55;;;;;;;13.07;12.33;;;6.80;99.90;;;;;;5057590;28;20230;-80
2023/12/22 03:31:23;;;;;;;13.03;12.27;;;6.70;99.90;;;;;;5056951;28;20225;-79
2023/12/22 03:33:50;;;;;;;12.87;12.17;;;6.70;99.90;;;;;;5057162;28;20252;-80
2023/12/22 03:36:16;;;;;;;13.10;12.30;;;6.70;99.90;;;;;;5056172;28;20201;-79
2023/12/22 03:38:43;;;;;;;12.90;12.10;;;6.70;99.90;;;;;;5055897;28;20623;-80
2023/12/22 03:41:11;;;;;;;12.90;12.00;;;6.60;99.90;;;;;;5055132;28;20646;-78
2023/12/22 03:43:37;;;;;;;13.20;12.30;;;6.60;99.90;;;;;;5055575;28;20206;-80
2023/12/22 03:46:04;;;;;;;13.07;12.27;;;6.60;99.90;;;;;;5056938;28;20199;-80
2023/12/22 03:48:32;;;;;;;12.93;12.13;;;6.60;99.90;;;;;;5057486;28;20191;-79
2023/12/22 03:50:59;;;;;;;13.60;12.50;;;6.60;99.90;;;;;;5054213;28;20231;-77
2023/12/22 03:53:26;;;;;;;13.20;12.40;;;6.60;99.90;;;;;;5054241;28;20710;-76
2023/12/22 03:55:53;;;;;;;13.40;12.40;;;6.60;99.90;;;;;;5070380;28;20624;-78
2023/12/22 03:58:19;;;;;;;12.90;12.03;;;6.70;99.90;;;;;;5048112;28;20199;-77
2023/12/22 04:00:47;;;;;;;13.43;12.63;;;6.70;99.90;;;;;;5052198;28;20608;-76
2023/12/22 04:03:13;;;;;;;12.80;12.10;;;6.80;99.90;;;;;;5053055;28;20196;-77
2023/12/22 04:05:42;;;;;;;12.67;11.93;;;6.70;99.90;;;;;;5054455;28;20474;-76
2023/12/22 04:08:08;;;;;;;13.40;12.50;;;6.80;99.90;;;;;;5053999;28;20206;-78
2023/12/22 04:10:35;;;;;;;12.50;11.80;;;6.80;99.90;;;;;;5054881;28;20238;-77
2023/12/22 04:13:02;;;;;;;12.80;12.00;;;6.70;99.90;;;;;;5061762;28;20225;-77
2023/12/22 04:15:29;;;;;;;13.30;12.40;;;6.70;99.90;;;;;;5054382;28;20211;-77
2023/12/22 04:17:56;;;;;;;13.17;12.37;;;6.80;99.90;;;;;;5068865;28;20747;-76
2023/12/22 04:20:23;;;;;;;13.33;12.57;;;6.80;99.90;;;;;;5059826;28;20933;-77
2023/12/22 04:22:52;;;;;;;12.90;12.20;;;6.80;99.90;;;;;;5054505;28;20234;-77
2023/12/22 04:25:18;;;;;;;13.40;12.50;;;6.80;99.90;;;;;;5055110;28;20192;-77
2023/12/22 04:27:45;;;;;;;13.60;12.63;;;6.80;99.90;;;;;;5055078;28;20645;-78
2023/12/22 04:30:13;;;;;;;14.07;12.93;;;6.80;99.90;;;;;;5052496;28;20306;-77
2023/12/22 04:32:39;;;;;;;13.67;12.70;;;6.80;99.90;;;;;;5049462;28;20220;-78
2023/12/22 04:35:07;;;;;;;13.37;12.37;;;6.80;99.90;;;;;;5052948;28;20218;-78
2023/12/22 04:37:33;;;;;;;13.03;12.03;;;6.80;99.90;;;;;;5056934;28;20198;-78
2023/12/22 04:40:02;;;;;;;12.93;12.13;;;6.90;99.90;;;;;;5055482;28;20199;-77
2023/12/22 04:42:29;;;;;;;13.60;12.60;;;6.90;99.90;;;;;;5055123;28;20203;-77
2023/12/22 04:44:56;;;;;;;13.60;12.50;;;6.90;99.90;;;;;;5055218;28;20199;-77
2023/12/22 04:47:23;;;;;;;13.20;12.30;;;6.90;99.90;;;;;;5045414;28;20227;-78
2023/12/22 04:49:50;;;;;;;13.47;12.47;;;7.00;99.90;;;;;;5054749;28;20228;-77
2023/12/22 04:52:17;;;;;;;13.90;12.80;;;7.00;99.90;;;;;;5054510;28;20206;-80
2023/12/22 04:54:43;;;;;;;13.30;12.50;;;7.00;99.90;;;;;;5051372;28;20190;-78
2023/12/22 04:57:12;;;;;;;13.40;12.50;;;6.90;99.90;;;;;;5053105;28;20658;-77
2023/12/22 04:59:38;;;;;;;13.53;12.50;;;6.90;99.90;;;;;;5050559;28;20249;-78
2023/12/22 05:02:05;;;;;;;14.77;13.13;;;6.80;99.90;;;;;;5047137;28;20696;-78
2023/12/22 05:04:33;;;;;;;14.47;13.20;;;6.80;99.90;;;;;;5051094;28;20585;-77
2023/12/22 05:07:00;;;;;;;14.93;13.70;;;6.70;99.90;;;;;;5049692;28;20197;-80
2023/12/22 05:09:28;;;;;;;14.10;13.00;;;6.80;99.90;;;;;;5056138;28;20198;-79
2023/12/22 05:11:55;;;;;;;14.90;13.87;;;6.70;99.90;;;;;;5056171;28;20217;-80
2023/12/22 05:14:23;;;;;;;14.50;13.50;;;6.70;99.90;;;;;;5055008;28;20198;-80
2023/12/22 05:16:54;;;;;;;14.37;13.30;;;6.70;99.90;;;;;;5054504;28;20208;-80
2023/12/22 05:19:21;;;;;;;14.53;13.43;;;6.70;99.90;;;;;;5055864;28;20303;-81
2023/12/22 05:21:49;;;;;;;15.23;13.83;;;6.60;99.90;;;;;;5055508;28;20209;-80
2023/12/22 05:24:16;;;;;;;14.80;13.63;;;6.60;99.90;;;;;;5052462;28;20585;-80
2023/12/22 05:26:43;;;;;;;14.63;13.30;;;6.60;99.90;;;;;;5055123;28;20203;-81
2023/12/22 05:29:12;;;;;;;14.00;12.90;;;6.70;99.90;;;;;;5055974;28;20203;-81
2023/12/22 05:31:41;;;;;;;15.07;13.77;;;6.70;99.90;;;;;;5055630;28;20301;-81
2023/12/22 05:34:10;;;;;;;15.27;13.90;;;6.70;99.90;;;;;;5056401;28;20194;-80
2023/12/22 05:36:44;;;;;;;15.27;13.70;;;6.70;99.90;;;;;;5051520;28;20201;-82
2023/12/22 05:39:11;;;;;;;15.00;14.00;;;6.80;99.90;;;;;;5053939;28;20195;-76
2023/12/22 05:41:38;;;;;;;14.83;13.50;;;6.80;99.90;;;;;;5052059;28;20615;-77
2023/12/22 05:44:05;;;;;;;14.60;13.60;;;6.90;99.90;;;;;;5051469;28;20194;-78
2023/12/22 05:46:36;;;;;;;15.20;13.80;;;6.90;99.90;;;;;;5051114;28;20305;-79
2023/12/22 05:49:04;;;;;;;15.93;13.30;;;6.90;99.90;;;;;;5051460;28;20195;-77
2023/12/22 05:51:40;;;;;;;14.50;13.23;;;6.90;99.90;;;;;;5052880;28;20237;-81
2023/12/22 05:54:10;;;;;;;15.70;14.10;;;7.00;99.90;;;;;;5052152;28;20274;-80
2023/12/22 05:56:36;;;;;;;15.13;14.10;;;7.00;99.90;;;;;;5052353;28;20226;-80
2023/12/22 05:59:04;;;;;;;15.37;13.80;;;7.00;99.90;;;;;;5052359;28;20198;-79
2023/12/22 06:01:31;;;;;;;14.77;13.63;;;7.00;99.90;;;;;;5051623;28;20217;-80
2023/12/22 06:03:58;;;;;;;15.93;14.37;;;7.00;99.90;;;;;;5052829;28;20714;-81
2023/12/22 06:06:27;;;;;;;14.47;13.27;;;7.10;99.90;;;;;;5053571;28;20210;-81
2023/12/22 06:08:54;;;;;;;15.03;13.73;;;7.10;99.90;;;;;;5052756;28;20202;-81
2023/12/22 06:11:23;;;;;;;15.17;13.77;;;7.10;99.90;;;;;;5051774;28;20305;-80
2023/12/22 06:13:50;;;;;;;15.63;13.93;;;7.10;99.90;;;;;;5065299;28;20266;-80
2023/12/22 06:16:18;;;;;;;16.53;14.90;;;7.10;99.90;;;;;;5053037;28;20202;-84
2023/12/22 06:18:45;;;;;;;14.57;13.57;;;7.10;99.90;;;;;;5051689;28;20198;-78
2023/12/22 06:21:12;;;;;;;15.60;14.20;;;7.10;99.90;;;;;;5053232;28;20226;-80
2023/12/22 06:23:59;;;;;;;13.33;12.20;;;7.10;99.90;;;;;;5045587;28;20202;-77
2023/12/22 06:26:26;;;;;;;14.60;13.30;;;7.10;99.90;;;;;;5049686;28;20285;-79
2023/12/22 06:28:52;;;;;;;14.07;12.73;;;7.20;99.90;;;;;;5054945;28;20252;-80
2023/12/22 06:31:21;;;;;;;13.97;12.77;;;7.10;99.90;;;;;;5054407;28;20222;-80
2023/12/22 06:33:48;;;;;;;13.50;12.37;;;7.10;99.90;;;;;;5056605;28;20746;-79
2023/12/22 06:36:21;;;;;;;13.60;12.50;;;7.10;99.90;;;;;;5057101;28;20195;-78
2023/12/22 06:38:49;;;;;;;14.03;12.73;;;7.00;99.90;;;;;;5059316;28;20206;-79
2023/12/22 06:41:21;;;;;;;13.80;12.70;;;7.00;99.90;;;;;;5055668;28;20226;-80
2023/12/22 06:43:48;;;;;;;14.00;12.83;;;6.90;99.90;;;;;;5054183;28;20201;-80
2023/12/22 06:46:18;;;;;;;14.60;13.57;;;6.80;99.90;;;;;;5057684;28;20684;-80
2023/12/22 06:48:45;;;;;;;15.27;13.90;;;6.80;99.90;;;;;;5051265;28;20194;-80
2023/12/22 06:51:19;;;;;;;15.83;14.50;;;6.70;99.90;;;;;;5058456;28;20219;-80
2023/12/22 06:53:46;;;;;;;15.70;14.30;;;6.70;99.90;;;;;;5063099;28;20207;-80
2023/12/22 06:56:18;;;;;;;15.43;13.90;;;6.60;99.90;;;;;;5057255;28;20286;-80
2023/12/22 06:58:47;;;;;;;16.43;14.80;;;6.50;99.90;;;;;;5056727;28;20221;-80
2023/12/22 07:01:18;;;;;;;15.27;14.23;;;6.50;99.90;;;;;;5055068;28;20302;-80
2023/12/22 07:03:45;;;;;;;15.60;14.03;;;6.50;99.90;;;;;;5050875;28;20244;-80
2023/12/22 07:06:11;;;;;;;15.43;14.10;;;6.50;99.90;;;;;;5055937;28;20204;-80
2023/12/22 07:08:38;;;;;;;15.37;14.07;;;6.60;99.90;;;;;;5055218;28;20208;-80
2023/12/22 07:11:05;;;;;;;15.23;13.97;;;6.60;99.90;;;;;;5055026;28;20222;-80
2023/12/22 07:13:33;;;;;;;14.93;13.93;;;6.60;99.90;;;;;;5056746;28;20201;-80
2023/12/22 07:16:02;;;;;;;16.27;14.77;;;6.70;99.90;;;;;;5052734;28;20623;-80
2023/12/22 07:18:30;;;;;;;15.23;14.20;;;6.70;99.90;;;;;;5055223;28;20253;-80
2023/12/22 07:20:57;;;;;;;15.30;14.20;;;6.70;99.90;;;;;;5056684;28;20292;-80
2023/12/22 07:23:23;;;;;;;16.03;14.57;;;6.70;99.90;;;;;;5055192;28;20217;-80
2023/12/22 07:25:50;;;;;;;15.97;14.63;;;6.80;99.90;;;;;;5054959;28;20259;-81
2023/12/22 07:28:17;;;;;;;15.23;14.07;;;6.80;99.90;;;;;;5055667;28;20232;-80
2023/12/22 07:30:45;;;;;;;15.40;14.07;;;6.90;99.90;;;;;;5053727;28;20272;-80
2023/12/22 07:33:12;;;;;;;15.53;14.20;;;6.90;99.90;;;;;;5055847;28;20194;-80
2023/12/22 07:35:39;;;;;;;15.43;14.10;;;6.90;99.90;;;;;;5055779;28;20617;-80
2023/12/22 07:38:06;;;;;;;15.30;13.70;;;6.90;99.90;;;;;;5067416;28;20200;-80
2023/12/22 07:40:33;;;;;;;15.63;14.47;;;6.90;99.90;;;;;;5053980;28;20645;-80
2023/12/22 07:42:59;;;;;;;15.53;14.33;;;7.00;99.90;;;;;;5057117;28;20193;-80
2023/12/22 07:45:26;;;;;;;14.90;13.80;;;7.00;99.90;;;;;;5056375;28;20249;-79
2023/12/22 07:47:56;;;;;;;14.90;13.70;;;7.00;99.90;;;;;;5056889;28;20185;-80
2023/12/22 07:50:23;;;;;;;14.90;13.67;;;7.00;99.90;;;;;;5056826;28;20229;-81
2023/12/22 07:52:50;;;;;;;14.63;13.43;;;7.00;99.90;;;;;;5055566;28;20219;-80
2023/12/22 07:55:17;;;;;;;14.73;13.43;;;7.00;99.90;;;;;;5056705;28;20668;-80
2023/12/22 07:57:45;;;;;;;14.53;13.23;;;7.10;99.90;;;;;;5055929;28;20685;-80
2023/12/22 08:00:12;;;;;;;14.80;13.50;;;7.10;99.90;;;;;;5057725;28;20239;-81
2023/12/22 08:02:39;;;;;;;14.10;12.77;;;7.10;99.90;;;;;;5054912;28;20601;-80
2023/12/22 08:05:22;;;;;;;14.30;12.80;;;7.10;99.90;;;;;;5054514;28;20199;-84
2023/12/22 08:07:49;;;;;;;13.23;12.00;;;7.10;99.90;;;;;;5049197;28;20214;-80
2023/12/22 08:10:17;;;;;;;14.20;12.60;;;7.10;99.90;;;;;;5049476;28;20316;-76
2023/12/22 08:12:44;;;;;;;13.63;12.50;;;7.20;99.90;;;;;;5054135;28;20218;-77
2023/12/22 08:15:15;;;;;;;13.37;12.37;;;7.10;99.90;;;;;;5055620;28;20203;-80
2023/12/22 08:17:47;;;;;;;13.63;12.53;;;7.20;99.90;;;;;;5050624;28;20199;-80
2023/12/22 08:20:18;;;;;;;13.57;12.40;;;7.20;99.90;;;;;;5057954;28;20308;-80
2023/12/22 08:22:53;;;;;;;14.40;13.00;;;7.20;99.90;;;;;;5054905;28;20191;-79
2023/12/22 08:25:20;;;;;;;13.97;12.57;;;7.20;99.90;;;;;;5053374;28;20194;-80
2023/12/22 08:27:47;;;;;;;13.90;12.70;;;7.20;99.90;;;;;;5057991;28;20191;-80
2023/12/22 08:30:15;;;;;;;13.03;12.10;;;7.20;99.90;;;;;;5055712;28;20716;-81
2023/12/22 08:32:42;;;;;;;13.03;12.03;;;7.20;99.90;;;;;;5049208;28;20576;-80
2023/12/22 08:35:09;;;;;;;13.13;11.93;;;7.20;99.90;;;;;;5054301;28;20271;-80
2023/12/22 08:37:37;;;;;;;13.97;12.53;;;7.30;99.90;;;;;;5054075;28;20202;-80
2023/12/22 08:40:06;;;;;;;14.50;13.10;;;7.30;99.90;;;;;;5052485;28;20244;-83
2023/12/22 08:42:33;;;;;;;11.17;10.07;;;7.30;99.90;;;;;;5049356;28;20266;-78
2023/12/22 08:45:00;;;;;;;11.17;10.17;;;7.30;99.90;;;;;;5055455;28;20195;-77
2023/12/22 08:47:27;;;;;;;11.30;5.07;;;7.30;99.90;;;;;;5046452;28;20202;-76
2023/12/22 08:49:54;;;;;;;9.33;5.97;;;7.30;99.90;;;;;;5064819;28;20247;-76
2023/12/22 08:52:20;;;;;;;15.23;14.13;;;7.30;99.90;;;;;;5050024;28;20218;-77
2023/12/22 08:54:47;;;;;;;10.20;7.37;;;7.30;99.90;;;;;;5048752;28;20202;-77
2023/12/22 08:57:15;;;;;;;12.23;8.23;;;7.40;99.90;;;;;;5049230;28;20294;-77
2023/12/22 08:59:42;;;;;;;9.73;7.67;;;7.40;99.90;;;;;;5047958;28;20211;-77
2023/12/22 09:02:09;;;;;;;7.60;6.03;;;7.40;99.90;;;;;;5064624;28;20232;-78
2023/12/22 09:04:35;;;;;;;11.53;7.70;;;7.40;99.90;;;;;;5063962;28;20749;-78
2023/12/22 09:07:02;;;;;;;11.23;4.43;;;7.40;99.90;;;;;;5047385;28;20226;-78
2023/12/22 09:09:29;;;;;;;6.83;4.77;;;7.40;99.90;;;;;;5047063;28;20198;-78
2023/12/22 09:11:56;;;;;;;13.70;7.63;;;7.50;99.90;;;;;;5046139;28;20242;-78
2023/12/22 09:14:24;;;;;;;10.50;9.17;;;7.40;99.90;;;;;;5049045;28;20191;-78
2023/12/22 09:16:51;;;;;;;13.37;12.10;;;7.40;99.90;;;;;;5047176;28;20579;-78
2023/12/22 09:19:17;;;;;;;10.63;5.73;;;7.40;99.90;;;;;;5048684;28;20280;-78
2023/12/22 09:21:44;;;;;;;8.70;4.57;;;7.40;99.90;;;;;;5048216;28;20218;-78
2023/12/22 09:24:12;;;;;;;11.43;9.63;;;7.30;99.90;;;;;;5064416;28;20740;-78
2023/12/22 09:26:39;;;;;;;7.77;4.00;;;7.40;99.90;;;;;;5046723;28;20217;-78
2023/12/22 09:29:06;;;;;;;12.33;8.23;;;7.30;99.90;;;;;;5049670;28;20198;-79
2023/12/22 09:31:34;;;;;;;12.57;7.87;;;7.30;99.90;;;;;;5048933;28;20234;-79
2023/12/22 09:34:01;;;;;;;10.83;9.83;;;7.30;99.90;;;;;;5054042;28;20229;-78
2023/12/22 09:36:28;;;;;;;17.03;12.70;;;7.30;99.90;;;;;;5052541;28;20560;-78
2023/12/22 09:38:54;;;;;;;9.23;8.27;;;7.40;99.90;;;;;;5054842;28;20261;-78
2023/12/22 09:41:24;;;;;;;11.70;8.93;;;7.40;99.90;;;;;;5049632;28;20287;-79
2023/12/22 09:43:52;;;;;;;11.43;8.17;;;7.50;99.90;;;;;;5046535;28;20207;-79
2023/12/22 09:46:22;;;;;;;11.00;9.83;;;7.70;99.90;;;;;;5047971;28;20230;-77
2023/12/22 09:48:51;;;;;;;8.47;3.93;;;7.90;99.90;;;;;;5053705;28;20229;-78
2023/12/22 09:51:19;;;;;;;9.70;6.87;;;7.90;99.90;;;;;;5053954;28;20226;-79
2023/12/22 09:53:48;;;;;;;4.63;4.00;;;7.80;99.90;;;;;;5053203;28;20233;-79
2023/12/22 09:56:16;;;;;;;13.60;12.40;;;7.70;99.90;;;;;;5052928;28;20238;-78
2023/12/22 09:58:43;;;;;;;14.03;12.93;;;7.70;99.90;;;;;;5055526;28;20309;-78
2023/12/22 10:01:10;;;;;;;13.80;12.60;;;7.60;99.90;;;;;;5054762;28;20783;-78
2023/12/22 10:03:38;;;;;;;13.53;12.40;;;7.60;99.90;;;;;;5075574;28;20648;-79
2023/12/22 10:06:06;;;;;;;13.83;12.63;;;7.60;99.90;;;;;;5059589;28;20206;-78
2023/12/22 10:08:34;;;;;;;13.80;12.67;;;7.60;99.90;;;;;;5057701;28;20230;-78
2023/12/22 10:11:02;;;;;;;13.40;12.13;;;7.60;99.90;;;;;;5056964;28;20313;-77
2023/12/22 10:13:28;;;;;;;14.77;12.90;;;7.60;99.90;;;;;;5053364;28;20238;-78
2023/12/22 10:15:56;;;;;;;13.50;12.23;;;7.60;99.90;;;;;;5053066;28;20203;-78
2023/12/22 10:18:23;;;;;;;16.23;15.00;;;7.70;99.90;;;;;;5054118;28;20199;-79
2023/12/22 10:20:50;;;;;;;18.30;16.17;;;7.70;99.90;;;;;;5059318;28;20313;-77
2023/12/22 10:23:18;;;;;;;16.60;15.10;;;7.70;99.90;;;;;;5059151;28;20199;-78
2023/12/22 10:25:47;;;;;;;16.67;15.27;;;7.70;99.90;;;;;;5059272;28;20203;-78
2023/12/22 10:28:15;;;;;;;15.03;13.73;;;7.70;99.90;;;;;;5061018;28;20195;-78
2023/12/22 10:30:42;;;;;;;15.77;14.60;;;7.70;99.90;;;;;;5060711;28;20219;-78
2023/12/22 10:33:09;;;;;;;14.90;13.50;;;7.80;99.90;;;;;;5059882;28;20226;-78
2023/12/22 10:35:36;;;;;;;16.63;15.23;;;7.80;99.90;;;;;;5058831;28;20199;-78
2023/12/22 10:38:05;;;;;;;17.27;15.77;;;7.70;99.90;;;;;;5050119;28;20199;-78
2023/12/22 10:40:33;;;;;;;13.57;12.53;;;7.70;99.90;;;;;;5057948;28;20705;-77
2023/12/22 10:43:01;;;;;;;14.13;12.83;;;7.70;99.90;;;;;;5061343;28;20573;-78
2023/12/22 10:45:29;;;;;;;14.47;13.20;;;7.70;99.90;;;;;;5057437;28;20260;-76
2023/12/22 10:47:56;;;;;;;13.67;12.57;;;7.70;99.90;;;;;;5054935;28;20260;-77
2023/12/22 10:50:24;;;;;;;15.10;13.83;;;7.60;99.90;;;;;;5055443;28;20227;-80
2023/12/22 10:52:51;;;;;;;14.17;12.97;;;7.70;99.90;;;;;;5056900;28;20217;-79
2023/12/22 10:55:18;;;;;;;15.87;14.07;;;7.60;99.90;;;;;;5055771;28;20202;-81
2023/12/22 10:57:47;;;;;;;15.10;13.80;;;7.60;99.90;;;;;;5056142;28;20207;-84
2023/12/22 11:00:17;;;;;;;16.20;14.60;;;7.60;99.90;;;;;;5054208;28;20262;-84
2023/12/22 11:02:47;;;;;;;15.57;14.27;;;7.60;99.90;;;;;;5053917;28;20200;-83
2023/12/22 11:05:17;;;;;;;16.03;14.47;;;7.60;99.90;;;;;;5048768;28;20728;-83
2023/12/22 11:07:49;;;;;;;14.57;13.10;;;7.60;99.90;;;;;;5056889;28;20217;-83
2023/12/22 11:10:21;;;;;;;14.20;13.00;;;7.60;99.90;;;;;;5063185;28;20273;-84
2023/12/22 11:12:50;;;;;;;13.80;12.67;;;7.60;99.90;;;;;;5054800;28;20600;-80
2023/12/22 11:15:20;;;;;;;14.40;12.90;;;7.60;99.90;;;;;;5052218;28;20222;-78
2023/12/22 11:17:49;;;;;;;13.50;12.30;;;7.60;99.90;;;;;;5070936;28;20261;-78
2023/12/22 11:20:17;;;;;;;14.37;13.23;;;7.60;99.90;;;;;;5055377;28;20301;-77
2023/12/22 11:22:44;;;;;;;14.07;12.77;;;7.60;99.90;;;;;;5054531;28;20735;-78
2023/12/22 11:25:12;;;;;;;13.23;12.27;;;7.60;99.90;;;;;;5057410;28;20199;-80
2023/12/22 11:27:39;;;;;;;14.37;13.00;;;7.60;99.90;;;;;;5053304;28;20199;-76
2023/12/22 11:30:18;;;;;;;13.93;12.73;;;7.70;99.90;;;;;;5063138;28;20234;-78
2023/12/22 11:32:46;;;;;;;14.87;13.33;;;7.60;99.90;;;;;;5055239;28;20717;-78
2023/12/22 11:35:14;;;;;;;14.53;13.20;;;7.60;99.90;;;;;;5054597;28;20214;-77
2023/12/22 11:37:42;;;;;;;14.50;13.03;;;7.60;99.90;;;;;;5053086;28;20195;-77
2023/12/22 11:40:10;;;;;;;14.80;13.30;;;7.60;99.90;;;;;;5053714;28;20250;-77
2023/12/22 11:42:43;;;;;;;13.30;12.37;;;7.60;99.90;;;;;;5049973;28;20192;-77
2023/12/22 11:45:15;;;;;;;14.03;12.87;;;7.60;99.90;;;;;;5045513;28;20223;-77
2023/12/22 11:47:42;;;;;;;14.37;13.23;;;7.50;99.90;;;;;;5053178;28;20253;-77
2023/12/22 11:50:10;;;;;;;14.03;12.87;;;7.60;99.90;;;;;;5052373;28;20219;-77
2023/12/22 11:52:37;;;;;;;14.67;13.40;;;7.60;99.90;;;;;;5054000;28;20253;-77
2023/12/22 11:55:04;;;;;;;15.70;13.10;;;7.60;99.90;;;;;;5052608;28;20191;-77
2023/12/22 11:57:37;;;;;;;14.10;12.80;;;7.60;99.90;;;;;;5052622;28;20203;-77
2023/12/22 12:00:10;;;;;;;13.83;12.63;;;7.60;99.90;;;;;;5052220;28;20230;-77
2023/12/22 12:02:42;;;;;;;13.77;12.87;;;7.60;99.90;;;;;;5053414;28;20277;-77
2023/12/22 12:05:10;;;;;;;13.60;12.57;;;7.60;99.90;;;;;;5053825;28;20198;-77
2023/12/22 12:07:43;;;;;;;13.47;12.43;;;7.60;99.90;;;;;;5054218;28;20203;-77
2023/12/22 12:10:11;;;;;;;13.50;12.40;;;7.60;99.90;;;;;;5064256;28;20227;-77
2023/12/22 12:12:38;;;;;;;13.40;12.30;;;7.60;99.90;;;;;;5054018;28;20207;-77
2023/12/22 12:15:11;;;;;;;12.87;11.97;;;7.60;99.90;;;;;;5052775;28;20202;-77
2023/12/22 12:17:43;;;;;;;13.50;12.43;;;7.70;99.90;;;;;;5052069;28;20207;-77
2023/12/22 12:20:12;;;;;;;13.30;12.40;;;7.70;99.90;;;;;;5052074;28;20223;-77
2023/12/22 12:22:40;;;;;;;12.90;12.10;;;7.70;99.90;;;;;;5052273;28;20289;-77
2023/12/22 12:25:11;;;;;;;13.90;12.80;;;7.70;99.90;;;;;;5052553;28;20191;-77
2023/12/22 12:27:40;;;;;;;13.30;12.57;;;7.70;99.90;;;;;;5052160;28;20199;-77
2023/12/22 12:30:15;;;;;;;12.97;12.17;;;7.70;99.90;;;;;;5051533;28;20261;-77
2023/12/22 12:32:49;;;;;;;12.97;12.27;;;7.70;99.90;;;;;;5051712;28;20226;-78
2023/12/22 12:35:18;;;;;;;13.10;12.30;;;7.70;99.90;;;;;;5053096;28;20209;-77
2023/12/22 12:37:45;;;;;;;13.17;12.20;;;7.70;99.90;;;;;;5053279;28;20241;-77
2023/12/22 12:40:12;;;;;;;12.73;11.93;;;7.70;99.90;;;;;;5052439;28;20215;-77
2023/12/22 12:42:39;;;;;;;13.50;12.50;;;7.70;99.90;;;;;;5052189;28;20203;-77